Aviation Digital Data Service (ADDS)

Output produced by METARs form (2239 UTC 30 March 2017)
found at http://www.aviationweather.gov/adds/metars/
 
KPAE 301720Z 3018/3118 28008KT P6SM SCT010 BKN035 
     TEMPO 3018/3020 5SM -SHRA BKN007 OVC030 
     FM302100 24010KT P6SM SCT020 BKN040 
     FM310000 30010KT P6SM SCT020 BKN040 
     FM310600 VRB03KT P6SM SCT040 SCT200 
     FM311700 16006KT P6SM BKN200
       
TAF AMD KPAM 302222Z 3022/0100 18012G18KT 9999 SCT075 QNH2980INS 
     BECMG 3023/3024 17010G15KT 8000 -SHRA SCT005 OVC020 QNH2978INS 
     TEMPO 3100/3103 19025G35KT 4800 -TSRA OVC005CB 
     BECMG 3110/3111 24010G15KT 9999 NSW BKN015 QNH2983INS 
     BECMG 3114/3115 28012KT 9999 SCT010 QNH2988INS 
     BECMG 3117/3118 30009KT 9999 SKC QNH2990INS TX23/3022Z TN15/3110Z
       
KPBF 301730Z 3018/3118 25014G20KT P6SM BKN035 
     FM310000 26009KT P6SM OVC050 
     FM310800 30006KT P6SM BKN250
       
KPBG 301724Z 3018/3118 02008KT P6SM FEW200 
     FM302300 02006KT P6SM BKN200 
     FM310900 VRB03KT P6SM VCSH OVC100 
     FM311600 12008KT 2SM -RASN BR OVC040
       
KPBI 302100Z 3021/3118 14013KT P6SM SCT040 
     FM310000 16008KT P6SM FEW030 SCT050 
     FM311300 17015KT P6SM SCT040
       
KPDK 302143Z 3022/3118 18012G20KT P6SM FEW060 BKN100 
     FM302300 20010G18KT P6SM VCSH BKN050 
     FM310300 19007KT 5SM -SHRA BKN030 
     TEMPO 3103/3107 VRB20G30KT 3SM TSRA BKN020CB 
     FM310700 23010KT P6SM VCSH OVC015 
     FM311400 26014KT P6SM BKN030
       
KPDT 302025Z 3020/3118 29012KT P6SM VCSH SCT050 BKN060 
     FM302100 28020G30KT P6SM VCSH BKN060 
     FM310300 27015KT P6SM SCT060 
     FM311000 27011KT P6SM SCT080 
     FM311500 26005KT P6SM FEW040
       
KPDX 302101Z 3021/3118 31006KT P6SM BKN050 
     FM311000 VRB02KT P6SM BKN020 
     FM311700 01004KT P6SM FEW020
       
KPGA 301740Z 3018/3118 VRB05KT P6SM SCT250 
     FM302000 24018G28KT P6SM BKN110 
     TEMPO 3103/3107 VRB25G35KT TSRA OVC050CB 
     FM310700 26010G20KT P6SM -SHRA SCT040 BKN090
       
KPGD 301722Z 3018/3118 20011KT P6SM SCT050 SCT250 
     FM302300 22009KT P6SM SCT250 
     FM310100 21005KT P6SM SCT250 
     FM310400 17005KT P6SM BKN250 
     FM311300 17009KT P6SM SCT010 BKN250 
     FM311500 20013G20KT P6SM VCSH SCT035 BKN050
       
KPGV 301731Z 3018/3118 11010KT P6SM OVC060 
     FM310800 15010KT P6SM OVC050 
     FM311100 15010KT P6SM OVC020 
     FM311200 15010KT 5SM TSRA OVC010CB 
     FM311600 18010KT P6SM VCTS OVC020CB AMD LTD TO CLD VIS AND WIND
       
KPHF 301735Z 3018/3118 11009KT P6SM BKN080 
     FM310800 14009KT P6SM OVC045 
     FM311000 15010KT P6SM SHRA OVC050 
     FM311200 15013G20KT 5SM SHRA OVC050 
     FM311400 16014G22KT 3SM SHRA OVC015 
     FM311600 16015G23KT 3SM SHRA OVC006
       
KPHL 302221Z 3022/3124 18009KT P6SM OVC050 
     FM310200 12005KT P6SM OVC050 
     FM310600 09006KT 4SM -RA BR BKN020 OVC040 
     FM311100 08012KT 5SM -RA BR BKN008 OVC010 
     FM311500 09012KT 1SM RA BR BKN003 OVC008 
     FM311900 09015KT 1SM RA BR OVC005
       
KPHX 302049Z 3021/3118 18012KT P6SM FEW250 
     FM302200 21010G20KT P6SM SCT250 
     FM310000 24015G25KT P6SM SCT250 
     TEMPO 3104/3107 27020G30KT 6SM BLDU SCT070 
     FM311000 28010KT P6SM SCT070
       
KPIA 302200Z 3022/3118 04008KT 6SM -RA BR OVC003 
     FM310000 02010KT 4SM BR VCSH OVC003 
     FM310300 35010KT 4SM -RA BR OVC003 
     FM311400 35014KT P6SM VCSH OVC008
       
KPIE 301722Z 3018/3118 20012G18KT P6SM FEW050 SCT250 
     FM310000 21007KT P6SM SCT250 
     FM310300 17006KT P6SM BKN250 
     FM311200 18010KT P6SM VCSH SCT015 BKN050 
     FM311500 20014G24KT P6SM VCSH SCT035 BKN050
       
KPIH 301720Z 3018/3118 VRB06KT P6SM VCSH SCT020 BKN040 
     TEMPO 3018/3019 P6SM -SHRA SCT015 OVC040 
     FM302100 24018G28KT 6SM -SHRA BR BKN010 OVC020 
     FM310200 25011KT P6SM -SHRA SCT010 OVC020 
     FM310600 36018G28KT P6SM -SHRA SCT007 OVC010
       
KPIR 301723Z 3018/3118 11008KT P6SM BKN013 
     FM302000 12009KT P6SM OVC025 
     FM311400 09007KT P6SM BKN030
       
KPIT 302055Z 3021/3124 10010KT P6SM BKN250 
     FM310100 08008KT P6SM -RA BKN060 WS020/19040KT 
     FM310800 16012KT 4SM -RA OVC050 WS020/20045KT 
     FM311300 15008KT 4SM -RA OVC010
       
KPKB 302148Z 3022/3118 16010G18KT P6SM VCTS SCT060CB BKN130 
     FM302300 16010G16KT P6SM BKN130 
     FM310800 16008G15KT 3SM SHRA OVC040 
     FM311100 16007KT 3SM SHRA OVC015 
     FM311300 17006KT 3SM SHRA OVC010
       
KPMD 301734Z 3018/3118 28025G35KT P6SM SCT250 
     FM302100 27030G40KT P6SM SCT250 
     FM302300 27040G50KT 1SM BLDU SCT002 
     FM310300 29028G38KT P6SM SKC 
     FM310700 30015G25KT P6SM SKC 
     FM311200 27012KT P6SM SKC
       
KPNA 302134Z 3022/3118 11012KT P6SM -DZ SCT025 OVC035 
     FM310100 36010KT P6SM VCSH SCT024 OVC040 
     FM310300 06007KT P6SM -RA OVC025 
     FM311100 06010KT P6SM VCSH OVC035 
     FM311400 33015G25KT P6SM VCSH BKN040 AMD LTD TO CLD VIS AND WIND
       
KPNE 301728Z 3018/3118 18005KT P6SM OVC100 
     FM302300 15005KT P6SM BKN050 OVC090 
     PROB30 3105/3107 4SM -RA OVC025 
     FM310700 11006KT 4SM -RA BKN020 OVC040 
     FM311100 08012KT 5SM -RA BKN008 OVC010 
     FM311500 09012KT 1SM RA BKN003 OVC008
       
KPNS 302044Z 3021/3118 15013G20KT P6SM BKN014 
     TEMPO 3021/3022 27020KT 1/2SM +TSRA BKN015CB OVC025 
     FM302200 23010KT P6SM VCSH SCT020 OVC030 
     TEMPO 3023/3101 P6SM -RA OVC020 
     FM310100 19007KT P6SM VCSH OVC015 
     TEMPO 3101/3103 P6SM -RA OVC012 
     FM310300 VRB04KT 4SM BR OVC007 
     FM311500 33005KT P6SM SKC
       
TAF AMD KPOB 301722Z 3017/3123 13012KT 9999 FEW020 BKN050 QNH2998INS 
     BECMG 3101/3102 14012KT 9999 VCSH BKN025 OVC050 520003 QNH2982INS 
     BECMG 3106/3107 16010G15KT 6000 -SHRA VCTS OVC007CB QNH2964INS 
     TEMPO 3110/3115 16015G30KT 2400 TSRA SCT002 OVC005CB 
     BECMG 3114/3115 16012G18KT 8000 -SHRA VCTS BKN025CB OVC080 QNH2962INS 
     TEMPO 3115/3120 20018G28KT 
     BECMG 3120/3121 23010G15KT 9999 NSW BKN030 OVC080 QNH2962INS TX22/3021Z TN14/3110Z
       
KPOU 302114Z 3021/3118 02005KT P6SM BKN110 
     FM310300 VRB03KT P6SM OVC060 
     FM311000 11005KT 3SM -RA BR OVC025 
     FM311600 12008KT 2SM -RA BR OVC007
       
KPQI 301720Z 3018/3118 35012KT P6SM SCT040 
     FM302300 35008KT P6SM SCT080
       
KPRB 301858Z 3019/3118 32017G30KT P6SM SKC 
     FM310500 33015KT P6SM SKC 
     FM311100 33008KT P6SM SKC
       
KPRC 301740Z 3018/3118 20015G20KT P6SM FEW250 
     FM302000 20025G35KT P6SM FEW100 
     FM310200 25020G30KT P6SM SCT050 BKN070 
     FM310700 27013G23KT P6SM SCT050 BKN070
       
KPSC 302027Z 3020/3118 34012KT P6SM VCSH SCT080 
     FM302200 32013G22KT P6SM SCT080 
     FM310300 30010KT P6SM FEW070 
     FM311200 VRB04KT P6SM SKC
       
KPSF 302115Z 3021/3118 31007KT P6SM OVC250 
     FM302200 35004KT P6SM BKN130 
     FM310200 05005KT P6SM BKN090 
     PROB30 3109/3110 1SM -SN OVC003 
     FM311000 10004KT 1/2SM SN FG OVC010 
     FM311600 12007KT 1SM -SNPLRA OVC020
       
KPSM 301722Z 3018/3118 35010KT P6SM FEW250 
     FM310800 01004KT P6SM BKN070 
     FM311700 07004KT P6SM OVC050 
     PROB30 3117/3118 4SM -RASN OVC025
       
KPSP 301900Z 3019/3118 14011KT P6SM SKC 
     FM302300 32030G40KT P6SM SKC 
     TEMPO 3023/3103 09010G20KT 4SM BLDU 
     FM310800 34015G25KT P6SM SKC 
     FM311200 33011G18KT P6SM SKC
       
KPUB 302011Z 3020/3118 13010G20KT P6SM SCT150 SCT250 
     FM310100 08010KT P6SM SCT150 BKN200 
     FM310400 08009KT P6SM SCT090 BKN150 
     FM311300 07009KT P6SM BKN015
       
KPUW 301727Z 3018/3118 25013G22KT P6SM SCT015 BKN040 
     FM302100 27015G24KT P6SM -SHRA BKN040 BKN090 
     FM310100 28007KT P6SM SCT040 BKN080 
     FM310500 29003KT P6SM FEW050 
     FM310900 28002KT P6SM BKN006
       
KPVD 302137Z 3022/3118 01005KT P6SM SCT250 
     FM310000 12005KT P6SM BKN120 
     FM310900 00000KT P6SM OVC020 
     FM311200 07005KT 2SM -RAPL OVC010 
     FM311500 07006KT 1SM -RAPL OVC010
       
KPVU 301947Z 3020/3118 31008KT P6SM VCSH SCT060 BKN080 
     FM310000 30016G26KT 6SM -RA SCT020 BKN040 
     FM310600 34016G28KT P6SM VCSH SCT020 BKN040
       
KPWM 301722Z 3018/3118 33013G21KT P6SM FEW250 
     FM302200 34006KT P6SM FEW250 
     FM311400 03006KT P6SM BKN080